sensor_id;sensor_type;location;lat;lon;timestamp;P1;durP1;ratioP1;P2;durP2;ratioP2
12110;SDS011;6119;52.372;8.990;2023-11-21T00:00:56;18.27;;;10.30;;
12110;SDS011;6119;52.372;8.990;2023-11-21T00:03:43;22.47;;;10.97;;
12110;SDS011;6119;52.372;8.990;2023-11-21T00:06:30;19.60;;;11.10;;
12110;SDS011;6119;52.372;8.990;2023-11-21T00:09:17;21.23;;;11.43;;
12110;SDS011;6119;52.372;8.990;2023-11-21T00:12:04;20.83;;;11.00;;
12110;SDS011;6119;52.372;8.990;2023-11-21T00:14:56;21.83;;;11.27;;
12110;SDS011;6119;52.372;8.990;2023-11-21T00:17:43;21.90;;;10.67;;
12110;SDS011;6119;52.372;8.990;2023-11-21T00:20:29;20.07;;;11.10;;
12110;SDS011;6119;52.372;8.990;2023-11-21T00:23:16;20.50;;;11.87;;
12110;SDS011;6119;52.372;8.990;2023-11-21T00:26:03;18.27;;;11.17;;
12110;SDS011;6119;52.372;8.990;2023-11-21T00:28:50;23.20;;;12.10;;
12110;SDS011;6119;52.372;8.990;2023-11-21T00:31:38;15.30;;;10.93;;
12110;SDS011;6119;52.372;8.990;2023-11-21T00:34:25;22.27;;;11.67;;
12110;SDS011;6119;52.372;8.990;2023-11-21T00:37:11;22.77;;;11.50;;
12110;SDS011;6119;52.372;8.990;2023-11-21T00:39:58;20.93;;;11.77;;
12110;SDS011;6119;52.372;8.990;2023-11-21T00:42:44;21.07;;;12.77;;
12110;SDS011;6119;52.372;8.990;2023-11-21T00:45:31;21.57;;;12.27;;
12110;SDS011;6119;52.372;8.990;2023-11-21T00:48:20;19.90;;;11.80;;
12110;SDS011;6119;52.372;8.990;2023-11-21T00:51:06;23.43;;;12.43;;
12110;SDS011;6119;52.372;8.990;2023-11-21T00:53:53;20.73;;;12.27;;
12110;SDS011;6119;52.372;8.990;2023-11-21T00:56:40;24.50;;;13.00;;
12110;SDS011;6119;52.372;8.990;2023-11-21T00:59:27;24.90;;;12.83;;
12110;SDS011;6119;52.372;8.990;2023-11-21T01:02:13;22.80;;;13.37;;
12110;SDS011;6119;52.372;8.990;2023-11-21T01:05:02;21.37;;;13.10;;
12110;SDS011;6119;52.372;8.990;2023-11-21T01:07:50;24.50;;;12.60;;
12110;SDS011;6119;52.372;8.990;2023-11-21T01:10:37;25.70;;;14.07;;
12110;SDS011;6119;52.372;8.990;2023-11-21T01:13:23;22.40;;;12.93;;
12110;SDS011;6119;52.372;8.990;2023-11-21T01:16:13;24.83;;;13.63;;
12110;SDS011;6119;52.372;8.990;2023-11-21T01:18:59;24.57;;;14.60;;
12110;SDS011;6119;52.372;8.990;2023-11-21T01:21:48;27.67;;;14.53;;
12110;SDS011;6119;52.372;8.990;2023-11-21T01:24:35;22.10;;;14.77;;
12110;SDS011;6119;52.372;8.990;2023-11-21T01:27:21;23.77;;;14.87;;
12110;SDS011;6119;52.372;8.990;2023-11-21T01:30:08;23.40;;;14.70;;
12110;SDS011;6119;52.372;8.990;2023-11-21T01:32:55;29.73;;;16.00;;
12110;SDS011;6119;52.372;8.990;2023-11-21T01:35:42;27.70;;;15.10;;
12110;SDS011;6119;52.372;8.990;2023-11-21T01:38:30;31.00;;;16.07;;
12110;SDS011;6119;52.372;8.990;2023-11-21T01:41:18;30.23;;;17.40;;
12110;SDS011;6119;52.372;8.990;2023-11-21T01:44:05;27.67;;;16.57;;
12110;SDS011;6119;52.372;8.990;2023-11-21T01:46:54;33.63;;;16.57;;
12110;SDS011;6119;52.372;8.990;2023-11-21T01:49:43;31.60;;;16.37;;
12110;SDS011;6119;52.372;8.990;2023-11-21T01:52:32;30.30;;;17.37;;
12110;SDS011;6119;52.372;8.990;2023-11-21T01:55:22;26.47;;;16.27;;
12110;SDS011;6119;52.372;8.990;2023-11-21T01:58:12;31.50;;;16.67;;
12110;SDS011;6119;52.372;8.990;2023-11-21T03:31:15;32.17;;;15.47;;
12110;SDS011;6119;52.372;8.990;2023-11-21T03:34:03;33.53;;;15.93;;
12110;SDS011;6119;52.372;8.990;2023-11-21T03:36:50;31.77;;;16.30;;
12110;SDS011;6119;52.372;8.990;2023-11-21T03:39:37;34.70;;;16.53;;
12110;SDS011;6119;52.372;8.990;2023-11-21T03:42:23;32.63;;;16.80;;
12110;SDS011;6119;52.372;8.990;2023-11-21T03:45:11;30.13;;;16.43;;
12110;SDS011;6119;52.372;8.990;2023-11-21T03:48:00;34.73;;;16.20;;
12110;SDS011;6119;52.372;8.990;2023-11-21T03:50:47;34.33;;;17.00;;
12110;SDS011;6119;52.372;8.990;2023-11-21T03:53:34;36.50;;;17.40;;
12110;SDS011;6119;52.372;8.990;2023-11-21T03:56:21;30.33;;;16.27;;
12110;SDS011;6119;52.372;8.990;2023-11-21T03:59:07;37.70;;;17.27;;
12110;SDS011;6119;52.372;8.990;2023-11-21T04:01:55;34.33;;;18.00;;
12110;SDS011;6119;52.372;8.990;2023-11-21T04:04:43;34.80;;;17.97;;
12110;SDS011;6119;52.372;8.990;2023-11-21T04:07:30;42.07;;;19.73;;
12110;SDS011;6119;52.372;8.990;2023-11-21T04:10:17;31.90;;;16.47;;
12110;SDS011;6119;52.372;8.990;2023-11-21T04:13:04;39.57;;;16.47;;
12110;SDS011;6119;52.372;8.990;2023-11-21T04:15:51;33.83;;;15.00;;
12110;SDS011;6119;52.372;8.990;2023-11-21T04:18:38;33.90;;;15.13;;
12110;SDS011;6119;52.372;8.990;2023-11-21T04:21:27;35.70;;;15.73;;
12110;SDS011;6119;52.372;8.990;2023-11-21T04:24:14;27.70;;;15.23;;
12110;SDS011;6119;52.372;8.990;2023-11-21T04:27:00;34.47;;;14.47;;
12110;SDS011;6119;52.372;8.990;2023-11-21T04:29:47;33.23;;;14.40;;
12110;SDS011;6119;52.372;8.990;2023-11-21T04:32:34;32.20;;;14.67;;
12110;SDS011;6119;52.372;8.990;2023-11-21T04:35:21;32.20;;;14.83;;
12110;SDS011;6119;52.372;8.990;2023-11-21T04:38:08;35.67;;;14.40;;
12110;SDS011;6119;52.372;8.990;2023-11-21T04:40:55;31.73;;;13.83;;
12110;SDS011;6119;52.372;8.990;2023-11-21T04:43:45;29.10;;;13.23;;
12110;SDS011;6119;52.372;8.990;2023-11-21T04:46:32;31.20;;;14.23;;
12110;SDS011;6119;52.372;8.990;2023-11-21T04:49:19;26.43;;;13.17;;
12110;SDS011;6119;52.372;8.990;2023-11-21T04:52:05;28.17;;;13.90;;
12110;SDS011;6119;52.372;8.990;2023-11-21T04:54:55;28.47;;;13.30;;
12110;SDS011;6119;52.372;8.990;2023-11-21T04:57:43;24.47;;;12.13;;
12110;SDS011;6119;52.372;8.990;2023-11-21T05:00:30;31.23;;;12.10;;
12110;SDS011;6119;52.372;8.990;2023-11-21T05:03:16;27.13;;;11.83;;
12110;SDS011;6119;52.372;8.990;2023-11-21T05:06:04;27.13;;;11.60;;
12110;SDS011;6119;52.372;8.990;2023-11-21T05:08:51;19.63;;;10.87;;
12110;SDS011;6119;52.372;8.990;2023-11-21T05:11:39;21.03;;;10.37;;
12110;SDS011;6119;52.372;8.990;2023-11-21T05:14:28;19.57;;;10.30;;
12110;SDS011;6119;52.372;8.990;2023-11-21T05:17:15;17.13;;;10.20;;
12110;SDS011;6119;52.372;8.990;2023-11-21T05:20:02;18.30;;;9.33;;
12110;SDS011;6119;52.372;8.990;2023-11-21T05:22:50;16.07;;;9.40;;
12110;SDS011;6119;52.372;8.990;2023-11-21T05:25:37;16.47;;;8.97;;
12110;SDS011;6119;52.372;8.990;2023-11-21T05:28:26;17.57;;;8.90;;
12110;SDS011;6119;52.372;8.990;2023-11-21T05:31:13;17.57;;;8.87;;
12110;SDS011;6119;52.372;8.990;2023-11-21T05:34:01;16.70;;;8.47;;
12110;SDS011;6119;52.372;8.990;2023-11-21T05:36:49;14.63;;;8.43;;
12110;SDS011;6119;52.372;8.990;2023-11-21T05:39:36;15.03;;;9.17;;
12110;SDS011;6119;52.372;8.990;2023-11-21T05:42:23;15.77;;;8.93;;
12110;SDS011;6119;52.372;8.990;2023-11-21T05:45:11;13.73;;;7.73;;
12110;SDS011;6119;52.372;8.990;2023-11-21T05:47:58;14.07;;;8.07;;
12110;SDS011;6119;52.372;8.990;2023-11-21T05:50:45;15.27;;;8.17;;
12110;SDS011;6119;52.372;8.990;2023-11-21T05:53:32;13.80;;;7.70;;
12110;SDS011;6119;52.372;8.990;2023-11-21T05:56:19;13.63;;;7.23;;
12110;SDS011;6119;52.372;8.990;2023-11-21T05:59:05;14.43;;;7.70;;
12110;SDS011;6119;52.372;8.990;2023-11-21T06:01:53;15.33;;;8.20;;
12110;SDS011;6119;52.372;8.990;2023-11-21T06:04:40;12.90;;;7.20;;
12110;SDS011;6119;52.372;8.990;2023-11-21T06:07:27;13.33;;;7.50;;
12110;SDS011;6119;52.372;8.990;2023-11-21T06:10:19;16.27;;;7.87;;
12110;SDS011;6119;52.372;8.990;2023-11-21T06:13:06;12.30;;;7.90;;
12110;SDS011;6119;52.372;8.990;2023-11-21T06:15:52;16.03;;;7.90;;
12110;SDS011;6119;52.372;8.990;2023-11-21T06:18:41;18.30;;;8.67;;
12110;SDS011;6119;52.372;8.990;2023-11-21T06:21:28;17.63;;;8.87;;
12110;SDS011;6119;52.372;8.990;2023-11-21T06:24:14;16.37;;;8.17;;
12110;SDS011;6119;52.372;8.990;2023-11-21T06:27:03;17.50;;;8.00;;
12110;SDS011;6119;52.372;8.990;2023-11-21T06:29:49;13.17;;;8.87;;
12110;SDS011;6119;52.372;8.990;2023-11-21T06:32:36;13.97;;;8.07;;
12110;SDS011;6119;52.372;8.990;2023-11-21T06:35:26;14.87;;;8.37;;
12110;SDS011;6119;52.372;8.990;2023-11-21T06:38:15;12.93;;;7.90;;
12110;SDS011;6119;52.372;8.990;2023-11-21T06:41:02;16.17;;;8.23;;
12110;SDS011;6119;52.372;8.990;2023-11-21T06:43:49;13.33;;;8.43;;
12110;SDS011;6119;52.372;8.990;2023-11-21T06:46:35;19.00;;;9.47;;
12110;SDS011;6119;52.372;8.990;2023-11-21T06:49:23;15.43;;;8.70;;
12110;SDS011;6119;52.372;8.990;2023-11-21T06:52:12;14.77;;;9.00;;
12110;SDS011;6119;52.372;8.990;2023-11-21T06:54:59;16.37;;;9.03;;
12110;SDS011;6119;52.372;8.990;2023-11-21T06:57:45;16.83;;;8.70;;
12110;SDS011;6119;52.372;8.990;2023-11-21T07:00:33;13.87;;;8.80;;
12110;SDS011;6119;52.372;8.990;2023-11-21T07:03:19;13.97;;;8.33;;
12110;SDS011;6119;52.372;8.990;2023-11-21T07:06:07;16.03;;;9.07;;
12110;SDS011;6119;52.372;8.990;2023-11-21T07:08:55;13.47;;;9.23;;
12110;SDS011;6119;52.372;8.990;2023-11-21T07:11:43;16.13;;;8.57;;
12110;SDS011;6119;52.372;8.990;2023-11-21T07:14:30;15.73;;;8.87;;
12110;SDS011;6119;52.372;8.990;2023-11-21T07:17:17;14.73;;;8.80;;
12110;SDS011;6119;52.372;8.990;2023-11-21T07:20:04;16.27;;;9.47;;
12110;SDS011;6119;52.372;8.990;2023-11-21T07:22:51;16.07;;;10.13;;
12110;SDS011;6119;52.372;8.990;2023-11-21T07:25:39;16.23;;;9.63;;
12110;SDS011;6119;52.372;8.990;2023-11-21T07:28:28;16.57;;;9.97;;
12110;SDS011;6119;52.372;8.990;2023-11-21T07:31:16;18.00;;;9.23;;
12110;SDS011;6119;52.372;8.990;2023-11-21T07:34:07;15.27;;;8.57;;
12110;SDS011;6119;52.372;8.990;2023-11-21T07:36:53;14.50;;;8.17;;
12110;SDS011;6119;52.372;8.990;2023-11-21T07:39:40;9.77;;;5.97;;
12110;SDS011;6119;52.372;8.990;2023-11-21T07:42:29;8.50;;;5.27;;
12110;SDS011;6119;52.372;8.990;2023-11-21T07:45:16;8.97;;;4.17;;
12110;SDS011;6119;52.372;8.990;2023-11-21T07:48:03;7.63;;;4.40;;
12110;SDS011;6119;52.372;8.990;2023-11-21T07:50:52;17.03;;;10.63;;
12110;SDS011;6119;52.372;8.990;2023-11-21T07:53:38;10.43;;;6.40;;
12110;SDS011;6119;52.372;8.990;2023-11-21T07:56:25;6.03;;;3.50;;
12110;SDS011;6119;52.372;8.990;2023-11-21T07:59:13;17.30;;;15.70;;
12110;SDS011;6119;52.372;8.990;2023-11-21T08:02:00;16.60;;;13.57;;
12110;SDS011;6119;52.372;8.990;2023-11-21T08:04:47;33.97;;;22.17;;
12110;SDS011;6119;52.372;8.990;2023-11-21T08:07:35;5.27;;;4.30;;
12110;SDS011;6119;52.372;8.990;2023-11-21T08:10:22;5.87;;;3.83;;
12110;SDS011;6119;52.372;8.990;2023-11-21T08:13:10;4.73;;;3.20;;
12110;SDS011;6119;52.372;8.990;2023-11-21T08:16:01;4.83;;;3.30;;
12110;SDS011;6119;52.372;8.990;2023-11-21T08:18:50;4.00;;;3.27;;
12110;SDS011;6119;52.372;8.990;2023-11-21T08:21:37;5.47;;;3.20;;
12110;SDS011;6119;52.372;8.990;2023-11-21T08:24:24;4.90;;;2.67;;
12110;SDS011;6119;52.372;8.990;2023-11-21T08:27:12;4.10;;;3.10;;
12110;SDS011;6119;52.372;8.990;2023-11-21T08:30:01;5.67;;;2.83;;
12110;SDS011;6119;52.372;8.990;2023-11-21T08:32:50;3.77;;;2.60;;
12110;SDS011;6119;52.372;8.990;2023-11-21T08:35:39;4.03;;;2.67;;
12110;SDS011;6119;52.372;8.990;2023-11-21T08:38:26;3.90;;;2.80;;
12110;SDS011;6119;52.372;8.990;2023-11-21T08:41:13;4.20;;;3.27;;
12110;SDS011;6119;52.372;8.990;2023-11-21T08:44:00;5.43;;;3.20;;
12110;SDS011;6119;52.372;8.990;2023-11-21T08:46:52;4.00;;;3.27;;
12110;SDS011;6119;52.372;8.990;2023-11-21T08:49:40;4.77;;;3.10;;
12110;SDS011;6119;52.372;8.990;2023-11-21T08:52:26;5.03;;;3.17;;
12110;SDS011;6119;52.372;8.990;2023-11-21T08:55:13;3.40;;;3.03;;
12110;SDS011;6119;52.372;8.990;2023-11-21T08:58:00;5.63;;;3.77;;
12110;SDS011;6119;52.372;8.990;2023-11-21T09:00:48;4.80;;;3.60;;
12110;SDS011;6119;52.372;8.990;2023-11-21T09:03:35;4.23;;;3.37;;
12110;SDS011;6119;52.372;8.990;2023-11-21T09:06:23;6.30;;;3.37;;
12110;SDS011;6119;52.372;8.990;2023-11-21T09:09:10;5.60;;;3.40;;
12110;SDS011;6119;52.372;8.990;2023-11-21T09:11:57;4.97;;;3.30;;
12110;SDS011;6119;52.372;8.990;2023-11-21T09:14:45;5.83;;;4.00;;
12110;SDS011;6119;52.372;8.990;2023-11-21T09:17:32;4.17;;;3.40;;
12110;SDS011;6119;52.372;8.990;2023-11-21T09:20:19;5.47;;;4.00;;
12110;SDS011;6119;52.372;8.990;2023-11-21T09:23:09;4.93;;;4.27;;
12110;SDS011;6119;52.372;8.990;2023-11-21T09:25:56;5.83;;;4.30;;
12110;SDS011;6119;52.372;8.990;2023-11-21T09:28:45;5.70;;;3.80;;
12110;SDS011;6119;52.372;8.990;2023-11-21T09:31:32;4.63;;;3.97;;
12110;SDS011;6119;52.372;8.990;2023-11-21T09:34:18;8.57;;;4.67;;
12110;SDS011;6119;52.372;8.990;2023-11-21T09:37:05;6.73;;;5.30;;
12110;SDS011;6119;52.372;8.990;2023-11-21T09:39:53;7.60;;;5.73;;
12110;SDS011;6119;52.372;8.990;2023-11-21T09:42:40;7.37;;;6.07;;
12110;SDS011;6119;52.372;8.990;2023-11-21T09:45:35;8.17;;;6.43;;
12110;SDS011;6119;52.372;8.990;2023-11-21T09:48:22;9.97;;;6.77;;
12110;SDS011;6119;52.372;8.990;2023-11-21T09:51:12;10.30;;;7.43;;
12110;SDS011;6119;52.372;8.990;2023-11-21T09:53:59;11.63;;;7.70;;
12110;SDS011;6119;52.372;8.990;2023-11-21T09:56:52;9.03;;;6.97;;
12110;SDS011;6119;52.372;8.990;2023-11-21T09:59:39;9.70;;;7.43;;
12110;SDS011;6119;52.372;8.990;2023-11-21T10:02:27;9.97;;;7.27;;
12110;SDS011;6119;52.372;8.990;2023-11-21T10:05:16;11.20;;;7.20;;
12110;SDS011;6119;52.372;8.990;2023-11-21T10:08:07;10.47;;;7.53;;
12110;SDS011;6119;52.372;8.990;2023-11-21T10:10:55;13.47;;;8.43;;
12110;SDS011;6119;52.372;8.990;2023-11-21T10:13:46;12.20;;;8.70;;
12110;SDS011;6119;52.372;8.990;2023-11-21T10:16:33;12.83;;;8.40;;
12110;SDS011;6119;52.372;8.990;2023-11-21T10:19:22;10.73;;;7.27;;
12110;SDS011;6119;52.372;8.990;2023-11-21T10:22:09;11.47;;;7.43;;
12110;SDS011;6119;52.372;8.990;2023-11-21T10:24:56;12.23;;;7.57;;
12110;SDS011;6119;52.372;8.990;2023-11-21T10:27:43;13.33;;;8.13;;
12110;SDS011;6119;52.372;8.990;2023-11-21T10:30:33;11.13;;;7.40;;
12110;SDS011;6119;52.372;8.990;2023-11-21T10:33:26;8.83;;;6.47;;
12110;SDS011;6119;52.372;8.990;2023-11-21T10:36:19;11.67;;;7.23;;
12110;SDS011;6119;52.372;8.990;2023-11-21T10:39:13;11.17;;;7.47;;
12110;SDS011;6119;52.372;8.990;2023-11-21T10:42:03;15.13;;;6.97;;
12110;SDS011;6119;52.372;8.990;2023-11-21T10:44:51;9.60;;;6.50;;
12110;SDS011;6119;52.372;8.990;2023-11-21T10:47:40;10.93;;;7.37;;
12110;SDS011;6119;52.372;8.990;2023-11-21T10:50:27;11.30;;;7.67;;
12110;SDS011;6119;52.372;8.990;2023-11-21T10:53:14;11.13;;;6.80;;
12110;SDS011;6119;52.372;8.990;2023-11-21T10:56:01;11.27;;;6.80;;
12110;SDS011;6119;52.372;8.990;2023-11-21T10:58:51;8.13;;;6.07;;
12110;SDS011;6119;52.372;8.990;2023-11-21T11:01:39;9.53;;;6.33;;
12110;SDS011;6119;52.372;8.990;2023-11-21T11:04:30;10.37;;;6.70;;
12110;SDS011;6119;52.372;8.990;2023-11-21T11:07:17;11.10;;;6.50;;
12110;SDS011;6119;52.372;8.990;2023-11-21T11:10:07;7.93;;;5.97;;
12110;SDS011;6119;52.372;8.990;2023-11-21T11:13:00;7.03;;;5.43;;
12110;SDS011;6119;52.372;8.990;2023-11-21T11:15:48;6.90;;;5.33;;
12110;SDS011;6119;52.372;8.990;2023-11-21T11:18:35;6.93;;;5.20;;
12110;SDS011;6119;52.372;8.990;2023-11-21T11:21:27;6.57;;;5.03;;
12110;SDS011;6119;52.372;8.990;2023-11-21T11:24:30;8.27;;;5.23;;
12110;SDS011;6119;52.372;8.990;2023-11-21T11:27:30;7.50;;;5.23;;
12110;SDS011;6119;52.372;8.990;2023-11-21T11:30:26;8.63;;;5.70;;
12110;SDS011;6119;52.372;8.990;2023-11-21T11:33:25;7.10;;;4.90;;
12110;SDS011;6119;52.372;8.990;2023-11-21T11:36:22;8.13;;;5.17;;
12110;SDS011;6119;52.372;8.990;2023-11-21T11:42:21;6.43;;;4.80;;
12110;SDS011;6119;52.372;8.990;2023-11-21T11:45:17;6.20;;;4.70;;
12110;SDS011;6119;52.372;8.990;2023-11-21T11:48:05;6.93;;;4.77;;
12110;SDS011;6119;52.372;8.990;2023-11-21T11:51:01;6.17;;;4.80;;
12110;SDS011;6119;52.372;8.990;2023-11-21T11:53:51;5.80;;;4.50;;
12110;SDS011;6119;52.372;8.990;2023-11-21T11:56:38;6.43;;;4.93;;
12110;SDS011;6119;52.372;8.990;2023-11-21T11:59:25;6.77;;;5.13;;
12110;SDS011;6119;52.372;8.990;2023-11-21T12:02:12;7.80;;;5.30;;
12110;SDS011;6119;52.372;8.990;2023-11-21T12:05:00;7.50;;;5.50;;
12110;SDS011;6119;52.372;8.990;2023-11-21T12:07:47;5.80;;;4.83;;
12110;SDS011;6119;52.372;8.990;2023-11-21T12:10:37;7.67;;;5.03;;
12110;SDS011;6119;52.372;8.990;2023-11-21T12:13:25;5.93;;;4.77;;
12110;SDS011;6119;52.372;8.990;2023-11-21T12:16:14;6.00;;;5.33;;
12110;SDS011;6119;52.372;8.990;2023-11-21T12:19:00;9.27;;;5.00;;
12110;SDS011;6119;52.372;8.990;2023-11-21T12:21:47;6.30;;;5.20;;
12110;SDS011;6119;52.372;8.990;2023-11-21T12:24:35;8.77;;;5.70;;
12110;SDS011;6119;52.372;8.990;2023-11-21T12:27:23;6.47;;;4.23;;
12110;SDS011;6119;52.372;8.990;2023-11-21T12:30:10;6.93;;;5.10;;
12110;SDS011;6119;52.372;8.990;2023-11-21T12:33:00;5.80;;;4.80;;
12110;SDS011;6119;52.372;8.990;2023-11-21T12:35:47;6.47;;;4.70;;
12110;SDS011;6119;52.372;8.990;2023-11-21T12:38:34;6.93;;;5.40;;
12110;SDS011;6119;52.372;8.990;2023-11-21T12:41:21;5.63;;;4.83;;
12110;SDS011;6119;52.372;8.990;2023-11-21T12:44:12;5.63;;;4.67;;
12110;SDS011;6119;52.372;8.990;2023-11-21T12:47:00;8.27;;;5.27;;
12110;SDS011;6119;52.372;8.990;2023-11-21T12:49:47;5.27;;;4.50;;
12110;SDS011;6119;52.372;8.990;2023-11-21T12:52:33;6.47;;;4.80;;
12110;SDS011;6119;52.372;8.990;2023-11-21T12:55:21;6.60;;;4.80;;
12110;SDS011;6119;52.372;8.990;2023-11-21T12:58:09;5.87;;;5.03;;
12110;SDS011;6119;52.372;8.990;2023-11-21T13:00:59;7.30;;;4.97;;
12110;SDS011;6119;52.372;8.990;2023-11-21T13:03:50;6.50;;;4.67;;
12110;SDS011;6119;52.372;8.990;2023-11-21T13:06:37;6.23;;;4.73;;
12110;SDS011;6119;52.372;8.990;2023-11-21T13:09:26;4.83;;;4.20;;
12110;SDS011;6119;52.372;8.990;2023-11-21T13:12:13;5.47;;;4.33;;
12110;SDS011;6119;52.372;8.990;2023-11-21T13:15:03;6.57;;;4.30;;
12110;SDS011;6119;52.372;8.990;2023-11-21T13:17:54;4.60;;;4.10;;
12110;SDS011;6119;52.372;8.990;2023-11-21T13:20:42;5.47;;;4.30;;
12110;SDS011;6119;52.372;8.990;2023-11-21T13:23:34;5.77;;;4.13;;
12110;SDS011;6119;52.372;8.990;2023-11-21T13:26:23;5.07;;;3.93;;
12110;SDS011;6119;52.372;8.990;2023-11-21T13:29:10;6.20;;;4.63;;
12110;SDS011;6119;52.372;8.990;2023-11-21T13:31:58;5.67;;;4.63;;
12110;SDS011;6119;52.372;8.990;2023-11-21T13:34:49;5.10;;;4.60;;
12110;SDS011;6119;52.372;8.990;2023-11-21T13:37:39;18.00;;;4.77;;
12110;SDS011;6119;52.372;8.990;2023-11-21T13:40:27;7.83;;;4.27;;
12110;SDS011;6119;52.372;8.990;2023-11-21T13:43:13;4.50;;;4.10;;
12110;SDS011;6119;52.372;8.990;2023-11-21T13:46:01;5.47;;;4.10;;
12110;SDS011;6119;52.372;8.990;2023-11-21T13:48:55;5.17;;;4.37;;
12110;SDS011;6119;52.372;8.990;2023-11-21T13:51:43;4.97;;;3.80;;
12110;SDS011;6119;52.372;8.990;2023-11-21T13:54:33;9.00;;;4.17;;
12110;SDS011;6119;52.372;8.990;2023-11-21T13:57:19;6.73;;;4.70;;
12110;SDS011;6119;52.372;8.990;2023-11-21T14:00:07;8.00;;;4.27;;
12110;SDS011;6119;52.372;8.990;2023-11-21T14:03:11;5.57;;;4.47;;
12110;SDS011;6119;52.372;8.990;2023-11-21T14:06:06;6.03;;;4.27;;
12110;SDS011;6119;52.372;8.990;2023-11-21T14:09:00;6.20;;;4.50;;
12110;SDS011;6119;52.372;8.990;2023-11-21T14:11:51;5.93;;;4.37;;
12110;SDS011;6119;52.372;8.990;2023-11-21T14:14:40;5.67;;;4.40;;
12110;SDS011;6119;52.372;8.990;2023-11-21T14:17:28;5.87;;;4.53;;
12110;SDS011;6119;52.372;8.990;2023-11-21T14:20:14;5.27;;;4.60;;
12110;SDS011;6119;52.372;8.990;2023-11-21T14:23:02;6.63;;;4.43;;
12110;SDS011;6119;52.372;8.990;2023-11-21T14:25:52;4.17;;;3.70;;
12110;SDS011;6119;52.372;8.990;2023-11-21T14:28:39;6.23;;;4.57;;
12110;SDS011;6119;52.372;8.990;2023-11-21T14:31:26;6.13;;;4.77;;
12110;SDS011;6119;52.372;8.990;2023-11-21T14:34:15;7.20;;;4.43;;
12110;SDS011;6119;52.372;8.990;2023-11-21T14:37:06;4.90;;;4.23;;
12110;SDS011;6119;52.372;8.990;2023-11-21T14:39:53;6.87;;;4.13;;
12110;SDS011;6119;52.372;8.990;2023-11-21T14:42:42;5.10;;;4.20;;
12110;SDS011;6119;52.372;8.990;2023-11-21T14:45:32;5.33;;;4.83;;
12110;SDS011;6119;52.372;8.990;2023-11-21T14:48:20;5.90;;;4.37;;
12110;SDS011;6119;52.372;8.990;2023-11-21T14:51:21;5.17;;;4.40;;
12110;SDS011;6119;52.372;8.990;2023-11-21T14:54:16;6.20;;;4.50;;
12110;SDS011;6119;52.372;8.990;2023-11-21T14:57:11;5.27;;;4.00;;
12110;SDS011;6119;52.372;8.990;2023-11-21T15:00:05;6.33;;;4.43;;
12110;SDS011;6119;52.372;8.990;2023-11-21T15:03:07;4.87;;;3.93;;
12110;SDS011;6119;52.372;8.990;2023-11-21T15:05:56;4.40;;;4.00;;
12110;SDS011;6119;52.372;8.990;2023-11-21T15:08:42;5.57;;;4.10;;
12110;SDS011;6119;52.372;8.990;2023-11-21T15:11:28;7.50;;;4.07;;
12110;SDS011;6119;52.372;8.990;2023-11-21T15:14:16;4.93;;;4.23;;
12110;SDS011;6119;52.372;8.990;2023-11-21T15:17:09;4.60;;;4.10;;
12110;SDS011;6119;52.372;8.990;2023-11-21T15:19:58;3.83;;;3.43;;
12110;SDS011;6119;52.372;8.990;2023-11-21T15:22:46;6.63;;;4.77;;
12110;SDS011;6119;52.372;8.990;2023-11-21T15:25:32;5.67;;;3.60;;
12110;SDS011;6119;52.372;8.990;2023-11-21T15:28:20;5.00;;;3.60;;
12110;SDS011;6119;52.372;8.990;2023-11-21T15:31:06;4.67;;;3.37;;
12110;SDS011;6119;52.372;8.990;2023-11-21T15:33:55;4.47;;;3.67;;
12110;SDS011;6119;52.372;8.990;2023-11-21T15:36:44;5.70;;;3.67;;
12110;SDS011;6119;52.372;8.990;2023-11-21T15:39:33;8.43;;;3.77;;
12110;SDS011;6119;52.372;8.990;2023-11-21T15:42:20;7.33;;;3.70;;
12110;SDS011;6119;52.372;8.990;2023-11-21T15:45:07;5.10;;;3.67;;
12110;SDS011;6119;52.372;8.990;2023-11-21T15:47:54;5.53;;;3.57;;
12110;SDS011;6119;52.372;8.990;2023-11-21T15:50:44;6.27;;;4.40;;
12110;SDS011;6119;52.372;8.990;2023-11-21T15:53:31;4.20;;;3.50;;
12110;SDS011;6119;52.372;8.990;2023-11-21T15:56:18;3.70;;;3.23;;
12110;SDS011;6119;52.372;8.990;2023-11-21T15:59:05;4.50;;;3.50;;
12110;SDS011;6119;52.372;8.990;2023-11-21T16:01:52;4.17;;;3.13;;
12110;SDS011;6119;52.372;8.990;2023-11-21T16:04:39;3.20;;;2.90;;
12110;SDS011;6119;52.372;8.990;2023-11-21T16:07:28;7.13;;;3.40;;
12110;SDS011;6119;52.372;8.990;2023-11-21T16:10:15;3.07;;;2.77;;
12110;SDS011;6119;52.372;8.990;2023-11-21T16:13:04;4.07;;;3.00;;
12110;SDS011;6119;52.372;8.990;2023-11-21T16:15:53;5.07;;;3.40;;
12110;SDS011;6119;52.372;8.990;2023-11-21T16:18:40;4.53;;;3.30;;
12110;SDS011;6119;52.372;8.990;2023-11-21T16:21:27;4.80;;;3.77;;
12110;SDS011;6119;52.372;8.990;2023-11-21T16:24:15;4.97;;;3.50;;
12110;SDS011;6119;52.372;8.990;2023-11-21T16:27:02;4.90;;;3.50;;
12110;SDS011;6119;52.372;8.990;2023-11-21T16:29:49;4.00;;;3.30;;
12110;SDS011;6119;52.372;8.990;2023-11-21T16:32:36;4.70;;;3.20;;
12110;SDS011;6119;52.372;8.990;2023-11-21T16:35:23;6.13;;;4.20;;
12110;SDS011;6119;52.372;8.990;2023-11-21T16:38:10;4.23;;;3.63;;
12110;SDS011;6119;52.372;8.990;2023-11-21T16:40:59;6.30;;;3.70;;
12110;SDS011;6119;52.372;8.990;2023-11-21T16:43:48;4.83;;;3.80;;
12110;SDS011;6119;52.372;8.990;2023-11-21T16:46:34;3.90;;;3.50;;
12110;SDS011;6119;52.372;8.990;2023-11-21T16:49:21;4.03;;;3.47;;
12110;SDS011;6119;52.372;8.990;2023-11-21T16:52:07;5.53;;;3.53;;
12110;SDS011;6119;52.372;8.990;2023-11-21T16:54:54;5.00;;;4.00;;
12110;SDS011;6119;52.372;8.990;2023-11-21T16:57:42;4.50;;;3.30;;
12110;SDS011;6119;52.372;8.990;2023-11-21T17:00:29;4.17;;;3.17;;
12110;SDS011;6119;52.372;8.990;2023-11-21T17:03:16;3.67;;;3.00;;
12110;SDS011;6119;52.372;8.990;2023-11-21T17:06:05;3.60;;;3.17;;
12110;SDS011;6119;52.372;8.990;2023-11-21T17:08:53;7.50;;;3.93;;
12110;SDS011;6119;52.372;8.990;2023-11-21T17:11:40;6.93;;;4.13;;
12110;SDS011;6119;52.372;8.990;2023-11-21T17:14:31;3.93;;;3.00;;
12110;SDS011;6119;52.372;8.990;2023-11-21T17:17:18;5.10;;;3.20;;
12110;SDS011;6119;52.372;8.990;2023-11-21T17:20:05;6.60;;;3.13;;
12110;SDS011;6119;52.372;8.990;2023-11-21T17:22:55;4.27;;;3.27;;
12110;SDS011;6119;52.372;8.990;2023-11-21T17:25:42;5.70;;;3.90;;
12110;SDS011;6119;52.372;8.990;2023-11-21T17:28:29;8.07;;;4.67;;
12110;SDS011;6119;52.372;8.990;2023-11-21T17:31:17;5.20;;;3.93;;
12110;SDS011;6119;52.372;8.990;2023-11-21T17:34:04;6.07;;;3.90;;
12110;SDS011;6119;52.372;8.990;2023-11-21T17:36:52;4.43;;;3.57;;
12110;SDS011;6119;52.372;8.990;2023-11-21T17:39:40;4.93;;;3.60;;
12110;SDS011;6119;52.372;8.990;2023-11-21T17:42:27;8.30;;;3.60;;
12110;SDS011;6119;52.372;8.990;2023-11-21T17:45:14;5.63;;;3.87;;
12110;SDS011;6119;52.372;8.990;2023-11-21T17:48:03;6.77;;;3.73;;
12110;SDS011;6119;52.372;8.990;2023-11-21T17:50:52;3.83;;;3.40;;
12110;SDS011;6119;52.372;8.990;2023-11-21T17:53:39;3.23;;;2.90;;
12110;SDS011;6119;52.372;8.990;2023-11-21T17:56:27;3.00;;;2.70;;
12110;SDS011;6119;52.372;8.990;2023-11-21T17:59:14;3.43;;;3.13;;
12110;SDS011;6119;52.372;8.990;2023-11-21T18:02:01;3.20;;;2.90;;
12110;SDS011;6119;52.372;8.990;2023-11-21T18:04:50;3.57;;;3.10;;
12110;SDS011;6119;52.372;8.990;2023-11-21T18:07:36;3.83;;;2.87;;
12110;SDS011;6119;52.372;8.990;2023-11-21T18:10:23;3.97;;;3.10;;
12110;SDS011;6119;52.372;8.990;2023-11-21T18:13:09;4.50;;;3.37;;
12110;SDS011;6119;52.372;8.990;2023-11-21T18:15:56;6.37;;;3.50;;
12110;SDS011;6119;52.372;8.990;2023-11-21T18:18:43;7.10;;;2.97;;
12110;SDS011;6119;52.372;8.990;2023-11-21T18:21:30;3.87;;;3.27;;
12110;SDS011;6119;52.372;8.990;2023-11-21T18:24:17;3.77;;;3.20;;
12110;SDS011;6119;52.372;8.990;2023-11-21T18:27:04;6.10;;;3.20;;
12110;SDS011;6119;52.372;8.990;2023-11-21T18:29:51;4.10;;;3.30;;
12110;SDS011;6119;52.372;8.990;2023-11-21T18:32:38;3.93;;;3.10;;